Time;durP1;ratioP1;P1;durP2;ratioP2;P2;SDS_P1;SDS_P2;PMS_P1;PMS_P2;Temp;Humidity;BMP_temperature;BMP_pressure;BME280_temperature;BME280_humidity;BME280_pressure;Samples;Min_cycle;Max_cycle;Signal;HPM_P1;HPM_P2
2023/12/21 00:00:34;;;;;;;76.20;41.03;;;;;;;0.10;100.00;98788.28;5114059;28;20484;-69
2023/12/21 00:03:00;;;;;;;70.47;38.45;;;;;;;0.14;100.00;98792.13;5113852;28;20495;-69
2023/12/21 00:05:25;;;;;;;68.00;37.05;;;;;;;0.06;100.00;98788.03;5115110;28;20027;-69
2023/12/21 00:07:51;;;;;;;79.57;39.67;;;;;;;0.02;100.00;98789.72;5115037;28;20019;-69
2023/12/21 00:10:16;;;;;;;70.15;38.08;;;;;;;0.00;100.00;98783.66;5115189;27;20083;-71
2023/12/21 00:12:42;;;;;;;68.68;39.42;;;;;;;-0.11;100.00;98782.06;5114886;28;20023;-69
2023/12/21 00:15:08;;;;;;;67.35;37.25;;;;;;;0.02;100.00;98781.47;5114945;28;20506;-69
2023/12/21 00:17:34;;;;;;;68.53;38.15;;;;;;;0.04;100.00;98782.00;5114789;28;20579;-69
2023/12/21 00:19:59;;;;;;;66.65;36.55;;;;;;;0.05;100.00;98789.13;5113593;28;20024;-70
2023/12/21 00:22:25;;;;;;;59.28;35.22;;;;;;;-0.05;100.00;98787.25;5113406;28;20035;-71
2023/12/21 00:24:50;;;;;;;63.67;35.35;;;;;;;0.01;100.00;98785.31;5114972;28;20023;-71
2023/12/21 00:27:15;;;;;;;63.30;36.20;;;;;;;0.06;100.00;98787.19;5114540;28;20015;-69
2023/12/21 00:29:41;;;;;;;67.90;35.45;;;;;;;0.10;100.00;98783.59;5114705;28;20517;-71
2023/12/21 00:32:06;;;;;;;63.90;32.75;;;;;;;0.11;100.00;98785.25;5114721;28;20051;-70
2023/12/21 00:34:32;;;;;;;60.42;32.33;;;;;;;0.31;100.00;98779.94;5113311;28;20028;-71
2023/12/21 00:36:57;;;;;;;55.35;31.15;;;;;;;0.30;100.00;98781.84;5114528;28;20496;-69
2023/12/21 00:39:23;;;;;;;54.75;30.88;;;;;;;0.44;100.00;98771.06;5113105;28;20024;-71
2023/12/21 00:41:48;;;;;;;53.10;29.85;;;;;;;0.35;100.00;98781.00;5114509;28;20016;-71
2023/12/21 00:44:13;;;;;;;56.10;32.92;;;;;;;0.20;100.00;98790.16;5114992;28;20019;-69
2023/12/21 00:46:39;;;;;;;61.83;33.83;;;;;;;0.05;100.00;98783.63;5114327;28;20023;-70
2023/12/21 00:49:04;;;;;;;68.55;34.47;;;;;;;0.04;100.00;98779.25;5114486;28;20486;-70
2023/12/21 00:51:30;;;;;;;49.70;30.67;;;;;;;0.08;100.00;98779.50;5114390;28;20507;-69
2023/12/21 00:53:55;;;;;;;55.45;33.45;;;;;;;0.09;100.00;98765.44;5114201;27;20483;-70
2023/12/21 00:56:21;;;;;;;54.50;30.77;;;;;;;0.19;100.00;98774.75;5114292;28;20026;-70
2023/12/21 00:58:46;;;;;;;63.20;33.42;;;;;;;0.38;100.00;98774.94;5114258;27;20084;-69
2023/12/21 01:01:11;;;;;;;59.97;33.10;;;;;;;0.22;100.00;98772.28;5114373;28;20023;-70
2023/12/21 01:03:37;;;;;;;57.92;31.40;;;;;;;0.31;100.00;98768.94;5113996;28;20015;-69
2023/12/21 01:06:02;;;;;;;58.42;31.13;;;;;;;0.57;100.00;98775.09;5114165;28;20103;-70
2023/12/21 01:08:28;;;;;;;58.33;31.75;;;;;;;0.82;100.00;98773.25;5114052;28;20015;-70
2023/12/21 01:10:53;;;;;;;56.88;31.77;;;;;;;0.91;100.00;98763.28;5112611;28;20038;-69
2023/12/21 01:13:19;;;;;;;57.50;32.00;;;;;;;0.96;100.00;98765.97;5112523;28;20039;-70
2023/12/21 01:15:44;;;;;;;59.58;34.78;;;;;;;1.14;100.00;98777.41;5129731;27;20491;-69
2023/12/21 01:18:10;;;;;;;51.08;31.77;;;;;;;1.19;100.00;98773.78;5112338;28;20480;-70
2023/12/21 01:20:35;;;;;;;52.47;30.95;;;;;;;0.95;100.00;98772.59;5113740;28;20043;-70
2023/12/21 01:23:00;;;;;;;49.72;29.20;;;;;;;1.09;100.00;98774.69;5113561;28;20057;-70
2023/12/21 01:25:26;;;;;;;52.53;32.15;;;;;;;1.03;100.00;98784.09;5113655;28;20023;-69
2023/12/21 01:27:52;;;;;;;59.88;32.55;;;;;;;0.66;100.00;98784.38;5113610;28;20021;-70
2023/12/21 01:30:17;;;;;;;55.78;32.58;;;;;;;0.86;100.00;98777.09;5113342;28;20058;-70
2023/12/21 01:32:42;;;;;;;55.60;30.55;;;;;;;0.84;100.00;98771.88;5113539;28;20031;-69
2023/12/21 01:35:08;;;;;;;60.78;35.47;;;;;;;0.92;100.00;98784.19;5113377;28;20030;-69
2023/12/21 01:37:33;;;;;;;61.00;34.45;;;;;;;0.74;100.00;98779.38;5113352;28;20456;-70
2023/12/21 01:39:59;;;;;;;51.65;31.30;;;;;;;0.81;100.00;98774.34;5113351;28;20035;-70
2023/12/21 01:42:24;;;;;;;48.28;29.33;;;;;;;1.00;100.00;98766.22;5113296;28;20023;-70
2023/12/21 01:44:50;;;;;;;50.78;28.48;;;;;;;0.94;100.00;98761.88;5111946;28;20031;-69
2023/12/21 01:47:16;;;;;;;48.78;27.73;;;;;;;1.15;100.00;98753.41;5113170;28;20024;-70
2023/12/21 01:49:42;;;;;;;45.47;27.08;;;;;;;1.17;100.00;98748.47;5112183;28;20030;-70
2023/12/21 01:52:09;;;;;;;45.13;28.02;;;;;;;1.16;100.00;98753.13;5128982;27;20020;-69
2023/12/21 01:54:35;;;;;;;48.83;28.83;;;;;;;1.09;100.00;98753.47;5111551;28;20020;-69
2023/12/21 01:57:01;;;;;;;42.92;24.48;;;;;;;1.20;100.00;98753.38;5113015;28;20020;-69
2023/12/21 01:59:27;;;;;;;36.97;21.52;;;;;;;1.34;100.00;98756.28;5113028;28;20019;-69
2023/12/21 02:01:52;;;;;;;35.85;22.55;;;;;;;1.43;100.00;98750.94;5128777;27;20189;-70
2023/12/21 02:04:18;;;;;;;40.63;21.50;;;;;;;1.59;100.00;98746.09;5112857;28;20112;-69
2023/12/21 02:06:44;;;;;;;37.50;21.23;;;;;;;1.65;100.00;98742.16;5111405;28;20050;-70
2023/12/21 02:09:09;;;;;;;38.47;21.70;;;;;;;1.61;100.00;98741.91;5128545;27;20446;-70
2023/12/21 02:11:35;;;;;;;40.25;23.00;;;;;;;1.63;100.00;98739.72;5112340;28;20403;-70
2023/12/21 02:14:01;;;;;;;32.67;18.80;;;;;;;1.70;100.00;98741.28;5128503;27;20038;-70
2023/12/21 02:16:31;;;;;;;34.97;20.05;;;;;;;1.70;100.00;98742.13;5111309;28;20026;-70
2023/12/21 02:18:57;;;;;;;33.35;19.98;;;;;;;1.75;100.00;98753.06;5112492;28;20547;-70
2023/12/21 02:21:23;;;;;;;34.22;19.60;;;;;;;1.75;100.00;98753.06;5111179;28;20024;-70
2023/12/21 02:23:50;;;;;;;31.63;18.70;;;;;;;1.72;100.00;98742.63;5112480;28;20030;-70
2023/12/21 02:26:18;;;;;;;28.10;17.48;;;;;;;1.76;100.00;98738.16;5112450;28;20483;-70
2023/12/21 02:28:43;;;;;;;25.83;15.18;;;;;;;1.94;100.00;98747.59;5112390;28;20020;-70
2023/12/21 02:31:09;;;;;;;25.90;14.30;;;;;;;2.14;100.00;98733.81;5112250;28;20479;-69
2023/12/21 02:33:34;;;;;;;24.63;14.63;;;;;;;2.37;100.00;98745.94;5112267;28;20030;-70
2023/12/21 02:36:00;;;;;;;30.50;15.13;;;;;;;2.42;100.00;98743.09;5112282;28;20077;-70
2023/12/21 02:38:25;;;;;;;24.15;14.02;;;;;;;2.46;100.00;98737.78;5110881;28;20051;-70
2023/12/21 02:40:51;;;;;;;25.17;14.13;;;;;;;2.47;100.00;98750.47;5110895;28;20027;-70
2023/12/21 02:43:16;;;;;;;23.33;14.20;;;;;;;2.42;100.00;98725.72;5112114;28;20411;-70
2023/12/21 02:45:42;;;;;;;28.02;15.23;;;;;;;2.51;100.00;98735.78;5112042;28;20045;-70
2023/12/21 02:48:07;;;;;;;24.98;14.63;;;;;;;2.61;100.00;98734.78;5112065;28;20041;-70
2023/12/21 02:50:33;;;;;;;25.50;15.68;;;;;;;2.60;100.00;98744.19;5111939;28;20102;-70
2023/12/21 02:52:58;;;;;;;20.27;13.00;;;;;;;2.63;100.00;98738.06;5110784;28;20028;-70
2023/12/21 02:55:23;;;;;;;16.65;11.10;;;;;;;2.81;100.00;98738.34;5110535;28;20104;-70
2023/12/21 02:57:49;;;;;;;17.50;11.27;;;;;;;2.88;100.00;98744.31;5111892;28;20027;-70
2023/12/21 03:00:15;;;;;;;17.90;11.55;;;;;;;2.92;100.00;98727.94;5110661;28;20024;-70
2023/12/21 03:02:40;;;;;;;19.23;11.65;;;;;;;3.03;100.00;98725.84;5111960;28;20030;-70
2023/12/21 03:05:06;;;;;;;16.38;10.68;;;;;;;3.19;99.59;98732.72;5111751;28;20038;-69
2023/12/21 03:07:31;;;;;;;17.23;11.07;;;;;;;3.26;98.66;98728.72;5111816;28;20017;-70
2023/12/21 03:09:57;;;;;;;19.85;11.20;;;;;;;3.21;98.52;98718.63;5110487;28;20027;-72
2023/12/21 03:12:22;;;;;;;19.35;12.15;;;;;;;3.20;99.07;98726.06;5111765;27;20023;-72
2023/12/21 03:14:48;;;;;;;23.30;12.00;;;;;;;3.23;98.82;98735.72;5111636;28;20031;-72
2023/12/21 03:17:13;;;;;;;17.73;11.45;;;;;;;3.08;99.31;98729.34;5111661;28;20053;-72
2023/12/21 03:19:39;;;;;;;18.13;12.00;;;;;;;2.92;100.00;98716.91;5111899;28;20445;-71
2023/12/21 03:22:04;;;;;;;20.10;11.60;;;;;;;2.79;100.00;98719.31;5110166;28;20047;-72
2023/12/21 03:24:31;;;;;;;18.23;10.88;;;;;;;2.83;100.00;98729.75;5127720;27;20020;-72
2023/12/21 03:26:56;;;;;;;18.05;11.40;;;;;;;2.81;100.00;98722.59;5110043;28;20022;-72
2023/12/21 03:29:22;;;;;;;21.13;11.93;;;;;;;2.85;100.00;98716.47;5111549;28;20028;-72
2023/12/21 03:31:48;;;;;;;24.27;10.80;;;;;;;2.94;100.00;98723.78;5111309;28;20030;-72
2023/12/21 03:34:13;;;;;;;25.20;10.98;;;;;;;2.99;100.00;98719.28;5111442;28;20475;-72
2023/12/21 03:36:39;;;;;;;20.75;11.23;;;;;;;3.03;99.41;98707.31;5111103;28;20028;-72
2023/12/21 03:39:04;;;;;;;17.60;10.85;;;;;;;3.18;98.75;98717.28;5110131;28;20027;-72
2023/12/21 03:41:30;;;;;;;21.50;11.73;;;;;;;3.30;98.08;98721.50;5110062;28;20457;-72
2023/12/21 03:43:57;;;;;;;18.40;11.32;;;;;;;3.42;97.30;98718.22;5111450;28;20026;-72
2023/12/21 03:46:23;;;;;;;22.33;12.63;;;;;;;3.42;97.65;98723.75;5110006;28;20020;-72
2023/12/21 03:48:48;;;;;;;18.83;11.00;;;;;;;3.36;97.59;98725.78;5111318;28;20023;-72
2023/12/21 03:51:14;;;;;;;18.45;11.65;;;;;;;3.38;97.73;98715.28;5109979;28;20027;-72
2023/12/21 03:53:39;;;;;;;24.92;14.13;;;;;;;3.37;97.40;98716.38;5126291;28;20019;-72
2023/12/21 03:56:05;;;;;;;21.20;13.32;;;;;;;3.37;97.18;98708.91;5131776;27;20411;-72
2023/12/21 03:58:30;;;;;;;21.02;14.20;;;;;;;3.38;97.34;98712.50;5131753;27;20398;-72
2023/12/21 04:00:56;;;;;;;23.35;13.43;;;;;;;3.47;97.19;98716.19;5131683;27;20023;-72
2023/12/21 04:03:21;;;;;;;28.58;15.35;;;;;;;3.55;96.56;98717.41;5131722;27;20022;-72
2023/12/21 04:05:47;;;;;;;23.63;14.07;;;;;;;3.51;96.75;98717.22;5131641;27;20019;-72
2023/12/21 04:08:13;;;;;;;27.02;12.65;;;;;;;3.49;96.76;98721.41;5131624;27;20020;-72
2023/12/21 04:10:38;;;;;;;21.85;13.07;;;;;;;3.51;96.93;98725.53;5131676;27;20510;-72
2023/12/21 04:13:04;;;;;;;25.88;14.38;;;;;;;3.51;97.25;98720.00;5131689;27;20072;-72
2023/12/21 04:15:29;;;;;;;24.45;14.20;;;;;;;3.55;96.81;98727.66;5131482;27;20031;-72
2023/12/21 04:17:54;;;;;;;28.10;14.75;;;;;;;3.45;97.53;98721.19;5130335;28;20026;-72
2023/12/21 04:20:20;;;;;;;28.45;15.02;;;;;;;3.48;97.08;98728.06;5131708;27;20080;-70
2023/12/21 04:22:45;;;;;;;24.20;14.13;;;;;;;3.54;96.96;98721.28;5129875;27;20491;-70
2023/12/21 04:25:11;;;;;;;24.75;14.15;;;;;;;3.53;97.29;98722.44;5111028;28;20484;-70
2023/12/21 04:27:37;;;;;;;22.88;14.98;;;;;;;3.56;96.93;98729.31;5110792;28;20114;-70
2023/12/21 04:30:03;;;;;;;28.80;16.40;;;;;;;3.50;96.88;98714.75;5109717;28;20032;-70
2023/12/21 04:32:28;;;;;;;25.33;16.05;;;;;;;3.51;96.39;98716.38;5110874;28;20098;-70
2023/12/21 04:34:54;;;;;;;33.08;14.70;;;;;;;3.49;97.20;98724.19;5111149;28;20531;-70
2023/12/21 04:37:20;;;;;;;22.13;14.55;;;;;;;3.45;97.26;98723.16;5114518;28;20419;-70
2023/12/21 04:39:46;;;;;;;28.50;15.55;;;;;;;3.28;97.87;98719.03;5113337;28;20031;-70
2023/12/21 04:42:11;;;;;;;33.65;16.40;;;;;;;3.30;97.56;98727.03;5114462;28;20020;-70
2023/12/21 04:44:37;;;;;;;29.25;17.52;;;;;;;3.15;99.08;98723.41;5113287;28;20026;-70
2023/12/21 04:47:05;;;;;;;30.98;19.05;;;;;;;3.10;99.05;98726.25;5114340;28;20027;-70
2023/12/21 04:49:30;;;;;;;34.40;19.42;;;;;;;3.06;99.83;98739.84;5114411;28;20023;-70
2023/12/21 04:51:56;;;;;;;46.55;25.80;;;;;;;3.03;99.69;98731.38;5112991;28;20053;-70
2023/12/21 04:54:21;;;;;;;33.83;19.73;;;;;;;3.07;100.00;98729.63;5114989;28;20027;-70
2023/12/21 04:56:47;;;;;;;38.63;21.10;;;;;;;3.10;100.00;98740.06;5114628;28;20031;-70
2023/12/21 04:59:12;;;;;;;39.33;22.25;;;;;;;3.00;100.00;98745.78;5113639;28;20027;-70
2023/12/21 05:01:38;;;;;;;36.78;21.48;;;;;;;3.12;100.00;98739.78;5114318;28;20018;-69
2023/12/21 05:04:10;;;;;;;40.90;23.08;;;;;;;3.16;100.00;98741.63;5119543;27;20552;-69
2023/12/21 05:06:35;;;;;;;42.15;23.10;;;;;;;3.27;100.00;98753.31;5114155;28;20072;-70
2023/12/21 05:09:00;;;;;;;45.10;25.17;;;;;;;3.34;100.00;98755.69;5113975;28;20023;-69
2023/12/21 05:11:27;;;;;;;51.92;28.02;;;;;;;3.19;100.00;98749.31;5113941;28;20113;-69
2023/12/21 05:13:53;;;;;;;48.35;26.10;;;;;;;3.06;100.00;98755.63;5113970;28;20502;-69
2023/12/21 05:16:18;;;;;;;50.45;27.17;;;;;;;3.00;100.00;98745.78;5114243;27;20023;-70
2023/12/21 05:18:44;;;;;;;51.67;30.02;;;;;;;2.95;100.00;98753.03;5114463;27;20034;-68
2023/12/21 05:21:09;;;;;;;54.42;28.85;;;;;;;3.07;100.00;98758.06;5113812;28;20028;-69
2023/12/21 05:23:35;;;;;;;50.97;30.15;;;;;;;3.15;100.00;98751.06;5123171;27;20027;-71
2023/12/21 05:26:00;;;;;;;53.17;28.13;;;;;;;3.14;100.00;98762.41;5123736;27;20019;-71
2023/12/21 05:28:26;;;;;;;48.78;26.70;;;;;;;3.13;100.00;98753.28;5132675;27;20163;-70
2023/12/21 05:30:52;;;;;;;48.05;28.13;;;;;;;3.20;100.00;98750.16;5134244;27;20042;-72
2023/12/21 05:33:17;;;;;;;47.03;26.95;;;;;;;3.29;100.00;98761.31;5132798;27;20027;-72
2023/12/21 05:35:43;;;;;;;47.17;26.20;;;;;;;3.35;100.00;98760.09;5132986;27;20072;-72
2023/12/21 05:38:08;;;;;;;47.78;27.77;;;;;;;3.29;100.00;98758.56;5133852;27;20039;-72
2023/12/21 05:40:34;;;;;;;45.13;26.65;;;;;;;3.23;100.00;98755.88;5133967;27;20110;-72
2023/12/21 05:42:59;;;;;;;47.72;27.55;;;;;;;3.19;100.00;98757.59;5131814;27;20068;-72
2023/12/21 05:45:25;;;;;;;46.72;26.13;;;;;;;3.17;100.00;98764.56;5122388;27;20035;-72
2023/12/21 05:47:51;;;;;;;45.70;26.70;;;;;;;3.13;100.00;98761.56;5113150;28;20062;-73
2023/12/21 05:50:16;;;;;;;50.38;28.10;;;;;;;3.16;100.00;98765.69;5111773;28;20054;-73
2023/12/21 05:52:42;;;;;;;46.28;26.92;;;;;;;3.14;100.00;98756.88;5112226;28;20119;-72
2023/12/21 05:55:10;;;;;;;44.97;25.85;;;;;;;3.11;100.00;98761.06;5113414;28;20027;-73
2023/12/21 05:57:35;;;;;;;41.22;24.98;;;;;;;3.08;100.00;98758.91;5112105;28;20540;-73
2023/12/21 06:00:01;;;;;;;45.13;25.73;;;;;;;3.11;100.00;98755.53;5113087;28;20106;-73
2023/12/21 06:02:26;;;;;;;45.22;26.40;;;;;;;3.10;100.00;98756.66;5111498;28;20031;-73
2023/12/21 06:04:52;;;;;;;52.88;27.75;;;;;;;3.03;100.00;98750.72;5112956;28;20084;-73
2023/12/21 06:07:17;;;;;;;46.08;25.75;;;;;;;3.02;100.00;98755.41;5112642;28;20023;-73
2023/12/21 06:09:42;;;;;;;46.33;25.80;;;;;;;3.00;100.00;98756.81;5112853;28;20032;-73
2023/12/21 06:12:09;;;;;;;47.58;26.75;;;;;;;2.96;100.00;98756.63;5112509;28;20023;-72
2023/12/21 06:14:34;;;;;;;49.53;25.83;;;;;;;3.05;100.00;98762.28;5112679;28;20381;-72
2023/12/21 06:16:59;;;;;;;53.85;25.42;;;;;;;3.05;100.00;98759.50;5112483;28;20016;-73
2023/12/21 06:19:25;;;;;;;51.33;25.38;;;;;;;3.08;100.00;98756.13;5127462;27;20015;-73
2023/12/21 06:21:50;;;;;;;54.58;27.38;;;;;;;3.08;100.00;98756.13;5132257;27;20054;-73
2023/12/21 06:24:16;;;;;;;57.10;25.05;;;;;;;3.11;100.00;98763.00;5132133;27;20019;-74
2023/12/21 06:26:42;;;;;;;44.60;24.88;;;;;;;3.19;100.00;98765.91;5131814;27;20023;-78
2023/12/21 06:29:08;;;;;;;38.80;23.73;;;;;;;3.29;100.00;98766.84;5132912;27;20034;-77
2023/12/21 06:31:34;;;;;;;42.80;25.40;;;;;;;3.30;100.00;98765.72;5133108;27;20097;-75
2023/12/21 06:33:59;;;;;;;42.92;24.45;;;;;;;3.37;100.00;98755.06;5127676;27;20047;-74
2023/12/21 06:36:25;;;;;;;39.70;23.55;;;;;;;3.50;100.00;98759.00;5130684;27;20547;-74
2023/12/21 06:38:52;;;;;;;40.00;24.02;;;;;;;3.51;100.00;98753.16;5121701;27;20105;-70
2023/12/21 06:41:17;;;;;;;45.92;24.60;;;;;;;3.59;100.00;98765.47;5107690;28;20031;-71
2023/12/21 06:43:43;;;;;;;54.72;29.48;;;;;;;3.57;100.00;98756.66;5109500;27;20035;-72
2023/12/21 06:46:13;;;;;;;53.30;29.05;;;;;;;3.61;100.00;98765.13;5107946;28;20027;-71
2023/12/21 06:48:39;;;;;;;48.10;25.13;;;;;;;3.58;100.00;98763.81;5109215;28;20080;-69
2023/12/21 06:51:05;;;;;;;45.67;24.75;;;;;;;3.60;100.00;98766.28;5111198;28;20024;-74
2023/12/21 06:53:30;;;;;;;44.42;26.67;;;;;;;3.71;100.00;98769.69;5110666;28;20027;-71
2023/12/21 06:55:56;;;;;;;50.22;28.80;;;;;;;3.75;100.00;98766.00;5111630;28;20034;-71
2023/12/21 06:58:21;;;;;;;51.28;30.25;;;;;;;3.85;100.00;98753.91;5110829;28;20011;-71
2023/12/21 07:00:47;;;;;;;53.28;28.65;;;;;;;3.95;100.00;98766.69;5107501;28;20088;-71
2023/12/21 07:03:13;;;;;;;56.90;30.08;;;;;;;4.00;100.00;98758.31;5109865;28;20054;-71
2023/12/21 07:05:38;;;;;;;53.17;28.55;;;;;;;4.05;100.00;98757.38;5109606;28;20092;-71
2023/12/21 07:08:04;;;;;;;47.92;27.02;;;;;;;4.21;99.97;98752.31;5110873;28;20116;-71
2023/12/21 07:10:29;;;;;;;52.22;26.45;;;;;;;4.22;99.47;98749.25;5111142;28;20034;-71
2023/12/21 07:12:55;;;;;;;43.30;24.83;;;;;;;4.39;98.37;98745.00;5111301;28;20019;-72
2023/12/21 07:15:20;;;;;;;42.10;24.90;;;;;;;4.48;98.20;98753.41;5115665;27;20083;-70
2023/12/21 07:17:46;;;;;;;43.08;24.58;;;;;;;4.50;97.97;98749.16;5129552;27;20031;-70
2023/12/21 07:20:12;;;;;;;43.42;25.13;;;;;;;4.61;97.48;98757.25;5128378;27;20019;-70
2023/12/21 07:22:37;;;;;;;42.97;24.75;;;;;;;4.53;98.01;98750.50;5129469;27;20043;-70
2023/12/21 07:25:03;;;;;;;48.63;25.15;;;;;;;4.60;98.55;98761.16;5127692;27;20106;-71
2023/12/21 07:27:28;;;;;;;49.45;25.95;;;;;;;4.66;97.67;98753.53;5129095;27;20023;-69
2023/12/21 07:29:54;;;;;;;50.78;26.00;;;;;;;4.91;97.29;98761.25;5129510;27;20019;-72
2023/12/21 07:32:19;;;;;;;47.20;24.58;;;;;;;5.03;97.45;98763.47;5129615;27;20027;-71
2023/12/21 07:34:45;;;;;;;41.72;24.45;;;;;;;5.15;96.78;98767.63;5129574;27;20031;-74
2023/12/21 07:37:12;;;;;;;43.63;25.67;;;;;;;5.10;95.87;98768.56;5128408;28;20559;-74
2023/12/21 07:39:37;;;;;;;48.08;23.70;;;;;;;5.27;95.92;98778.13;5127732;28;20107;-72
2023/12/21 07:42:03;;;;;;;47.22;24.25;;;;;;;5.24;96.40;98768.47;5127937;28;20061;-73
2023/12/21 07:44:29;;;;;;;41.78;25.15;;;;;;;5.43;95.62;98770.22;5127710;28;20126;-71
2023/12/21 07:46:54;;;;;;;48.85;22.50;;;;;;;5.36;95.63;98762.34;5129121;27;20106;-71
2023/12/21 07:49:20;;;;;;;37.92;20.50;;;;;;;5.48;95.18;98759.81;5129252;27;20396;-71
2023/12/21 07:51:46;;;;;;;39.13;21.17;;;;;;;5.70;94.17;98763.66;5128918;27;20041;-72
2023/12/21 07:54:12;;;;;;;40.15;22.17;;;;;;;5.70;94.09;98763.66;5127673;28;20027;-71
2023/12/21 07:56:37;;;;;;;35.92;21.80;;;;;;;5.81;94.41;98775.28;5129333;27;20054;-71
2023/12/21 07:59:06;;;;;;;35.72;20.75;;;;;;;5.80;95.34;98782.00;5129083;27;20030;-72
2023/12/21 08:01:32;;;;;;;31.65;19.40;;;;;;;5.83;95.39;98778.56;5129172;27;20034;-71
2023/12/21 08:03:58;;;;;;;37.83;21.08;;;;;;;5.98;95.18;98793.97;5128641;27;20124;-69
2023/12/21 08:06:24;;;;;;;25.60;16.67;;;;;;;6.07;95.00;98787.69;5125706;28;20050;-71
2023/12/21 08:08:52;;;;;;;30.73;18.67;;;;;;;6.26;93.83;98788.22;5127527;27;20478;-71
2023/12/21 08:11:19;;;;;;;35.58;18.58;;;;;;;6.13;94.42;98786.38;5132631;27;20059;-71
2023/12/21 08:13:45;;;;;;;26.88;17.27;;;;;;;6.25;93.32;98783.00;5132114;27;20460;-71
2023/12/21 08:16:10;;;;;;;27.08;17.45;;;;;;;6.44;91.74;98791.84;5133715;27;20030;-73
2023/12/21 08:18:36;;;;;;;30.88;17.83;;;;;;;6.50;91.93;98784.16;5131544;27;20027;-71
2023/12/21 08:21:01;;;;;;;30.83;17.10;;;;;;;6.57;90.20;98781.75;5132822;27;20088;-72
2023/12/21 08:23:26;;;;;;;28.25;16.10;;;;;;;6.70;90.09;98777.19;5133302;27;20034;-71
2023/12/21 08:25:52;;;;;;;26.50;16.58;;;;;;;6.86;89.91;98785.03;5132781;27;20114;-70
2023/12/21 08:28:17;;;;;;;27.88;17.00;;;;;;;7.11;89.31;98777.00;5132367;27;20022;-71
2023/12/21 08:30:43;;;;;;;30.23;15.45;;;;;;;7.20;86.71;98777.81;5132509;27;20023;-71
2023/12/21 08:33:09;;;;;;;29.00;16.88;;;;;;;7.33;85.04;98773.19;5133117;27;20479;-71
2023/12/21 08:35:34;;;;;;;29.63;14.73;;;;;;;7.24;85.29;98777.94;5131257;27;20034;-72
2023/12/21 08:38:00;;;;;;;28.88;15.07;;;;;;;7.30;85.56;98771.91;5133160;27;20105;-71
2023/12/21 08:40:26;;;;;;;28.08;13.65;;;;;;;7.30;86.21;98762.75;5132663;27;20035;-70
2023/12/21 08:42:51;;;;;;;24.30;13.73;;;;;;;7.42;84.21;98765.66;5133681;27;20044;-70
2023/12/21 08:45:17;;;;;;;28.67;14.80;;;;;;;7.47;83.60;98755.47;5132437;27;20491;-70
2023/12/21 08:47:42;;;;;;;33.08;19.05;;;;;;;7.49;84.38;98764.34;5132301;27;20027;-70
2023/12/21 08:50:10;;;;;;;28.20;14.50;;;;;;;7.55;84.37;98760.22;5131008;27;20467;-67
2023/12/21 08:52:36;;;;;;;25.02;13.65;;;;;;;7.52;82.10;98755.31;5130870;27;20452;-72
2023/12/21 08:55:05;;;;;;;24.00;13.20;;;;;;;7.61;81.50;98742.22;5132064;27;20031;-71
2023/12/21 08:57:35;;;;;;;19.13;11.90;;;;;;;7.64;81.44;98743.47;5132227;27;20019;-71
2023/12/21 09:00:05;;;;;;;19.88;12.73;;;;;;;7.73;81.32;98745.09;5133180;27;20019;-74
2023/12/21 09:02:31;;;;;;;21.88;11.82;;;;;;;7.91;79.58;98750.59;5131130;27;20027;-74
2023/12/21 09:04:57;;;;;;;22.80;12.77;;;;;;;7.97;80.43;98752.03;5129148;27;20031;-74
2023/12/21 09:07:24;;;;;;;25.67;13.75;;;;;;;7.97;79.95;98742.84;5130543;27;20466;-73
2023/12/21 09:09:51;;;;;;;23.70;13.02;;;;;;;8.14;80.46;98739.16;5132102;27;20128;-74
2023/12/21 09:12:18;;;;;;;19.40;13.00;;;;;;;8.10;79.86;98739.00;5131879;27;20035;-74
2023/12/21 09:14:44;;;;;;;20.90;11.23;;;;;;;8.21;78.62;98731.09;5131733;27;20027;-74
2023/12/21 09:17:09;;;;;;;20.70;12.45;;;;;;;8.27;78.58;98728.94;5130544;27;20114;-74
2023/12/21 09:19:35;;;;;;;19.20;12.55;;;;;;;8.29;78.98;98721.06;5131742;27;20031;-74
2023/12/21 09:22:00;;;;;;;22.10;10.50;;;;;;;8.44;77.93;98722.41;5131473;27;20411;-74
2023/12/21 09:24:26;;;;;;;18.55;12.13;;;;;;;8.43;77.13;98709.63;5131901;27;20031;-75
2023/12/21 09:26:51;;;;;;;17.02;11.48;;;;;;;8.48;77.15;98705.81;5131002;27;20053;-74
2023/12/21 09:29:17;;;;;;;24.85;11.65;;;;;;;8.51;76.05;98708.78;5132448;27;20031;-75
2023/12/21 09:31:43;;;;;;;19.38;12.38;;;;;;;8.65;77.92;98716.06;5131478;27;20027;-75
2023/12/21 09:34:08;;;;;;;20.13;12.23;;;;;;;8.72;76.78;98707.97;5114607;27;20503;-75
2023/12/21 09:36:34;;;;;;;20.02;11.00;;;;;;;8.87;75.94;98702.91;5109195;28;20081;-75
2023/12/21 09:38:59;;;;;;;19.73;12.50;;;;;;;8.89;75.93;98697.81;5110788;28;20465;-74
2023/12/21 09:41:24;;;;;;;19.63;11.18;;;;;;;9.06;76.07;98692.06;5110815;28;20488;-74
2023/12/21 09:43:52;;;;;;;17.95;12.40;;;;;;;8.99;75.03;98686.22;5109341;28;20411;-73
2023/12/21 09:46:21;;;;;;;28.50;12.65;;;;;;;8.93;75.30;98684.78;5110669;28;20039;-75
2023/12/21 09:48:47;;;;;;;20.90;11.95;;;;;;;9.06;76.45;98683.69;5117419;27;20033;-75
2023/12/21 09:51:15;;;;;;;19.58;12.77;;;;;;;9.10;74.51;98681.84;5110987;28;20059;-74
2023/12/21 09:53:43;;;;;;;16.13;11.43;;;;;;;9.26;73.41;98683.97;5111350;28;20032;-74
2023/12/21 09:56:13;;;;;;;19.92;11.77;;;;;;;9.23;73.11;98674.31;5111164;28;20055;-74
2023/12/21 09:58:39;;;;;;;;;;;;;;;9.38;72.71;98674.81;5111620;28;20019;-74
2023/12/21 10:01:04;;;;;;;24.75;13.63;;;;;;;9.30;68.99;98668.19;5109273;28;19918;-74
2023/12/21 10:03:32;;;;;;;21.90;12.73;;;;;;;9.22;70.87;98657.91;5110187;28;20027;-74
2023/12/21 10:05:58;;;;;;;22.58;12.45;;;;;;;9.33;69.24;98655.47;5105993;27;20023;-74
2023/12/21 10:08:23;;;;;;;19.67;11.38;;;;;;;9.38;69.08;98653.28;5109632;28;20490;-74
2023/12/21 10:10:49;;;;;;;15.45;9.93;;;;;;;9.36;70.39;98649.22;5110295;28;20031;-73
2023/12/21 10:13:15;;;;;;;17.92;10.38;;;;;;;9.44;70.18;98647.50;5109999;28;20385;-73
2023/12/21 10:15:46;;;;;;;17.73;10.32;;;;;;;9.53;69.46;98639.78;5109781;28;20074;-73
2023/12/21 10:18:11;;;;;;;20.20;11.30;;;;;;;9.61;68.59;98638.88;5123810;27;20019;-74
2023/12/21 10:20:38;;;;;;;16.35;10.63;;;;;;;9.52;68.56;98629.81;5131633;27;20053;-73
2023/12/21 10:23:03;;;;;;;24.02;11.00;;;;;;;9.54;67.63;98633.88;5131817;27;20372;-73
2023/12/21 10:25:29;;;;;;;16.17;9.23;;;;;;;9.53;67.63;98617.47;5131323;27;20023;-72
2023/12/21 10:27:55;;;;;;;12.48;8.38;;;;;;;9.65;66.75;98611.91;5131627;27;20015;-73
2023/12/21 10:30:23;;;;;;;15.18;8.73;;;;;;;9.58;64.93;98608.03;5132676;27;20027;-73
2023/12/21 10:32:52;;;;;;;15.38;10.40;;;;;;;9.65;66.44;98611.91;5130520;27;20019;-72
2023/12/21 10:35:18;;;;;;;15.77;8.73;;;;;;;9.67;65.23;98608.75;5130126;27;20038;-72
2023/12/21 10:37:45;;;;;;;12.90;8.27;;;;;;;9.64;65.75;98609.47;5128795;27;20103;-71
2023/12/21 10:40:14;;;;;;;15.00;7.85;;;;;;;9.78;66.03;98607.09;5109833;27;20039;-71
2023/12/21 10:42:43;;;;;;;12.68;7.40;;;;;;;9.83;64.47;98606.88;5108017;28;20118;-71
2023/12/21 10:45:13;;;;;;;12.07;8.38;;;;;;;9.84;65.10;98602.09;5109579;28;20475;-71
2023/12/21 10:47:45;;;;;;;18.90;7.85;;;;;;;9.93;64.68;98611.16;5109084;28;20457;-72
2023/12/21 10:50:12;;;;;;;19.02;11.65;;;;;;;9.90;65.51;98605.47;5108078;28;20126;-73
2023/12/21 10:52:40;;;;;;;16.77;9.02;;;;;;;10.09;64.92;98599.25;5109228;28;20404;-71
2023/12/21 10:55:10;;;;;;;14.88;7.93;;;;;;;10.08;62.83;98595.66;5109266;28;20542;-72
2023/12/21 10:57:39;;;;;;;21.55;9.50;;;;;;;10.15;63.85;98589.47;5109397;28;20858;-73
2023/12/21 11:00:11;;;;;;;10.27;7.53;;;;;;;10.20;62.36;98591.22;5109114;28;20039;-73
2023/12/21 11:02:37;;;;;;;10.77;6.68;;;;;;;10.35;63.83;98598.00;5109311;28;20533;-72
2023/12/21 11:05:06;;;;;;;12.63;8.25;;;;;;;10.40;63.66;98592.19;5107923;28;20031;-75
2023/12/21 11:07:32;;;;;;;20.77;9.02;;;;;;;10.40;62.10;98594.97;5108882;28;20024;-74
2023/12/21 11:09:59;;;;;;;18.67;7.90;;;;;;;10.37;60.53;98585.31;5108954;28;20464;-74
2023/12/21 11:12:25;;;;;;;12.50;7.63;;;;;;;10.38;58.95;98575.75;5107449;28;20088;-73
2023/12/21 11:14:50;;;;;;;15.80;8.77;;;;;;;10.46;59.37;98581.59;5108909;28;20027;-73